createdAt,value
2023-05-11T00:01:17.150Z,100.00
2023-05-11T00:06:21.225Z,100.00
2023-05-11T00:11:23.951Z,100.00
2023-05-11T00:16:26.525Z,100.00
2023-05-11T00:21:30.513Z,100.00
2023-05-11T00:26:32.923Z,100.00
2023-05-11T00:31:35.906Z,100.00
2023-05-11T00:36:41.325Z,100.00
2023-05-11T00:41:43.944Z,100.00
2023-05-11T00:46:46.665Z,100.00
2023-05-11T00:51:51.803Z,100.00
2023-05-11T00:56:54.217Z,100.00
2023-05-11T01:01:56.816Z,100.00
2023-05-11T01:07:04.741Z,100.00
2023-05-11T01:12:11.487Z,100.00
2023-05-11T01:17:19.278Z,100.00
2023-05-11T01:22:29.816Z,100.00
2023-05-11T01:27:50.298Z,100.00
2023-05-11T01:32:55.459Z,100.00
2023-05-11T01:37:59.499Z,100.00
2023-05-11T01:43:03.320Z,100.00
2023-05-11T01:48:08.510Z,100.00
2023-05-11T01:53:11.717Z,100.00
2023-05-11T01:58:15.474Z,100.00
2023-05-11T02:03:20.429Z,100.00
2023-05-11T02:08:23.473Z,100.00
2023-05-11T02:13:28.524Z,100.00
2023-05-11T02:18:33.113Z,100.00
2023-05-11T02:23:35.748Z,100.00
2023-05-11T02:28:38.288Z,100.00
2023-05-11T02:33:44.707Z,100.00
2023-05-11T02:38:48.608Z,100.00
2023-05-11T02:43:52.623Z,100.00
2023-05-11T02:49:00.861Z,100.00
2023-05-11T02:54:04.830Z,100.00
2023-05-11T02:59:07.382Z,100.00
2023-05-11T03:04:11.165Z,100.00
2023-05-11T03:09:13.835Z,100.00
2023-05-11T03:14:16.472Z,100.00
2023-05-11T03:19:20.369Z,100.00
2023-05-11T03:24:23.162Z,100.00
2023-05-11T03:29:27.475Z,100.00
2023-05-11T03:34:31.371Z,100.00
2023-05-11T03:39:34.802Z,100.00
2023-05-11T03:44:38.719Z,100.00
2023-05-11T03:49:43.929Z,100.00
2023-05-11T03:54:46.524Z,100.00
2023-05-11T03:59:51.085Z,100.00
2023-05-11T04:04:54.968Z,100.00
2023-05-11T04:09:57.356Z,100.00
2023-05-11T04:14:59.930Z,100.00
2023-05-11T04:20:03.776Z,100.00
2023-05-11T04:25:06.718Z,100.00
2023-05-11T04:30:10.532Z,100.00
2023-05-11T04:35:14.573Z,100.00
2023-05-11T04:40:17.338Z,100.00
2023-05-11T04:45:20.140Z,100.00
2023-05-11T04:50:24.026Z,100.00
2023-05-11T04:55:26.973Z,100.00
2023-05-11T05:00:29.451Z,100.00
2023-05-11T05:05:33.353Z,100.00
2023-05-11T05:10:35.826Z,100.00
2023-05-11T05:15:38.345Z,100.00
2023-05-11T05:20:42.135Z,100.00
2023-05-11T05:25:44.575Z,100.00
2023-05-11T05:30:47.100Z,100.00
2023-05-11T05:35:51.025Z,100.00
2023-05-11T05:40:53.697Z,100.00
2023-05-11T05:45:56.260Z,100.00
2023-05-11T05:51:00.746Z,100.00
2023-05-11T05:56:03.283Z,100.00
2023-05-11T06:01:05.916Z,100.00
2023-05-11T06:06:09.758Z,100.00
2023-05-11T06:11:12.368Z,100.00
2023-05-11T06:16:14.962Z,100.00
2023-05-11T06:21:18.823Z,100.00
2023-05-11T06:26:21.351Z,100.00
2023-05-11T06:31:24.369Z,100.00
2023-05-11T06:36:29.333Z,100.00
2023-05-11T06:41:31.841Z,100.00
2023-05-11T06:46:34.389Z,100.00
2023-05-11T06:51:38.335Z,100.00
2023-05-11T06:56:40.959Z,100.00
2023-05-11T07:01:43.807Z,100.00
2023-05-11T07:06:47.827Z,100.00
2023-05-11T07:11:51.083Z,100.00
2023-05-11T07:16:53.597Z,100.00
2023-05-11T07:21:57.502Z,100.00
2023-05-11T07:27:00.798Z,98.04
2023-05-11T07:32:03.402Z,90.74
2023-05-11T07:37:08.263Z,78.47
2023-05-11T07:42:10.950Z,67.26
2023-05-11T07:47:13.599Z,69.14
2023-05-11T07:52:17.542Z,70.36
2023-05-11T07:57:20.594Z,80.86
2023-05-11T08:02:23.395Z,81.15
2023-05-11T08:07:27.243Z,82.83
2023-05-11T08:12:29.804Z,84.12
2023-05-11T08:17:32.585Z,96.64
2023-05-11T08:22:36.597Z,100.00
2023-05-11T08:27:39.010Z,83.55
2023-05-11T08:37:48.343Z,100.00
2023-05-11T08:42:54.721Z,80.39
2023-05-11T08:47:57.467Z,82.77
2023-05-11T08:53:01.378Z,77.12
2023-05-11T08:58:05.866Z,57.80
2023-05-11T09:03:08.600Z,58.17
2023-05-11T09:08:13.901Z,58.07
2023-05-11T09:13:16.589Z,52.69
2023-05-11T09:18:19.152Z,56.89
2023-05-11T09:23:25.721Z,69.71
2023-05-11T09:33:37.940Z,78.79
2023-05-11T09:38:41.828Z,86.91
2023-05-11T09:43:44.381Z,100.00
2023-05-11T09:48:46.859Z,91.28
2023-05-11T09:53:50.745Z,71.42
2023-05-11T09:58:54.900Z,89.29
2023-05-11T10:04:08.909Z,91.38
2023-05-11T10:09:25.847Z,86.83
2023-05-11T10:14:29.342Z,71.85
2023-05-11T10:19:32.900Z,97.14
2023-05-11T10:24:36.809Z,82.51
2023-05-11T10:29:39.460Z,77.85
2023-05-11T10:34:46.387Z,86.48
2023-05-11T10:39:51.053Z,85.59
2023-05-11T10:45:01.483Z,93.71
2023-05-11T10:50:14.778Z,100.00
2023-05-11T10:55:25.908Z,100.00
2023-05-11T11:00:54.120Z,100.00
2023-05-11T11:05:57.598Z,100.00
2023-05-11T11:11:04.923Z,98.34
2023-05-11T11:16:15.485Z,100.00
2023-05-11T11:21:33.868Z,100.00
2023-05-11T11:26:50.581Z,92.93
2023-05-11T11:31:53.257Z,92.02
2023-05-11T11:37:05.119Z,94.16
2023-05-11T11:42:09.577Z,100.00
2023-05-11T11:47:12.416Z,99.06
2023-05-11T11:52:15.367Z,96.85
2023-05-11T11:57:32.995Z,89.83
2023-05-11T12:02:40.901Z,97.22
2023-05-11T12:07:44.552Z,100.00
2023-05-11T12:12:47.439Z,100.00
2023-05-11T12:17:51.475Z,100.00
2023-05-11T12:22:54.030Z,100.00
2023-05-11T12:27:58.429Z,100.00
2023-05-11T12:33:04.408Z,100.00
2023-05-11T12:38:07.051Z,100.00
2023-05-11T12:43:09.565Z,100.00
2023-05-11T12:48:15.298Z,100.00
2023-05-11T12:53:19.123Z,100.00
2023-05-11T12:58:21.694Z,100.00
2023-05-11T13:03:26.486Z,100.00
2023-05-11T13:08:29.252Z,100.00
2023-05-11T13:13:32.505Z,100.00
2023-05-11T13:18:36.878Z,100.00
2023-05-11T13:23:39.494Z,100.00
2023-05-11T13:28:42.016Z,100.00
2023-05-11T13:33:46.475Z,100.00
2023-05-11T13:38:49.119Z,100.00
2023-05-11T13:43:51.661Z,100.00
2023-05-11T13:48:55.821Z,100.00
2023-05-11T13:53:59.373Z,100.00
2023-05-11T13:59:02.930Z,100.00
2023-05-11T14:04:06.990Z,100.00
2023-05-11T14:09:09.512Z,100.00
2023-05-11T14:14:12.119Z,100.00
2023-05-11T14:19:16.271Z,100.00
2023-05-11T14:24:18.824Z,100.00
2023-05-11T14:29:22.249Z,100.00
2023-05-11T14:34:26.482Z,100.00
2023-05-11T14:39:29.038Z,100.00
2023-05-11T14:44:32.253Z,100.00
2023-05-11T14:49:36.138Z,100.00
2023-05-11T14:54:38.690Z,100.00
2023-05-11T14:59:55.468Z,100.00
2023-05-11T15:05:03.226Z,100.00
2023-05-11T15:10:07.050Z,100.00
2023-05-11T15:15:10.036Z,100.00
2023-05-11T15:20:14.021Z,100.00
2023-05-11T15:25:16.869Z,100.00
2023-05-11T15:30:20.115Z,100.00
2023-05-11T15:35:23.950Z,100.00
2023-05-11T15:40:28.256Z,100.00
2023-05-11T15:45:30.845Z,100.00
2023-05-11T15:50:34.708Z,100.00
2023-05-11T15:55:39.055Z,100.00
2023-05-11T16:00:41.717Z,100.00
2023-05-11T16:05:45.584Z,100.00
2023-05-11T16:10:48.159Z,100.00
2023-05-11T16:15:50.706Z,100.00
2023-05-11T16:20:54.523Z,100.00
2023-05-11T16:25:58.310Z,100.00
2023-05-11T16:31:01.030Z,100.00
2023-05-11T16:36:05.469Z,100.00
2023-05-11T16:41:07.934Z,100.00
2023-05-11T16:46:10.661Z,100.00
2023-05-11T16:51:15.686Z,100.00
2023-05-11T16:56:18.135Z,100.00
2023-05-11T17:01:25.398Z,100.00
2023-05-11T17:06:29.582Z,100.00
2023-05-11T17:11:32.244Z,100.00
2023-05-11T17:16:34.739Z,100.00
2023-05-11T17:21:38.668Z,100.00
2023-05-11T17:26:48.058Z,100.00
2023-05-11T17:31:52.293Z,100.00
2023-05-11T17:36:57.009Z,100.00
2023-05-11T17:44:45.380Z,100.00
2023-05-11T17:49:47.920Z,100.00
2023-05-11T17:54:50.582Z,100.00
2023-05-11T17:59:54.579Z,100.00
2023-05-11T18:04:57.203Z,100.00
2023-05-11T18:10:00.062Z,100.00
2023-05-11T18:15:04.304Z,100.00
2023-05-11T18:20:08.484Z,100.00
2023-05-11T18:25:11.339Z,100.00
2023-05-11T18:30:15.951Z,100.00
2023-05-11T18:35:19.074Z,100.00
2023-05-11T18:40:22.418Z,100.00
2023-05-11T18:45:30.081Z,100.00
2023-05-11T18:50:32.658Z,100.00
2023-05-11T18:55:44.863Z,100.00
2023-05-11T19:00:56.285Z,100.00
2023-05-11T19:06:00.601Z,100.00
2023-05-11T19:11:07.880Z,100.00
2023-05-11T19:16:11.941Z,100.00
2023-05-11T19:21:14.582Z,100.00
2023-05-11T19:26:17.542Z,100.00
2023-05-11T19:31:22.760Z,100.00
2023-05-11T19:36:27.568Z,100.00
2023-05-11T19:41:30.352Z,100.00
2023-05-11T19:46:34.490Z,100.00
2023-05-11T19:51:37.111Z,100.00
2023-05-11T19:56:40.545Z,100.00
2023-05-11T20:01:44.578Z,100.00
2023-05-11T20:06:47.213Z,100.00
2023-05-11T20:11:49.980Z,100.00
2023-05-11T20:16:55.736Z,100.00
2023-05-11T20:21:58.565Z,100.00
2023-05-11T20:27:05.656Z,100.00
2023-05-11T20:32:09.953Z,100.00
2023-05-11T20:37:14.098Z,100.00
2023-05-11T20:42:17.189Z,100.00
2023-05-11T20:47:24.800Z,100.00
2023-05-11T20:52:27.467Z,100.00
2023-05-11T20:57:30.366Z,100.00
2023-05-11T21:02:34.696Z,100.00
2023-05-11T21:07:37.634Z,100.00
2023-05-11T21:12:40.264Z,100.00
2023-05-11T21:17:44.387Z,100.00
2023-05-11T21:22:47.456Z,100.00
2023-05-11T21:27:50.115Z,100.00
2023-05-11T21:32:54.243Z,100.00
2023-05-11T21:37:57.600Z,100.00
2023-05-11T21:43:00.030Z,100.00
2023-05-11T21:48:04.185Z,100.00
2023-05-11T21:53:07.097Z,100.00
2023-05-11T21:58:09.870Z,100.00
2023-05-11T22:03:13.973Z,100.00
2023-05-11T22:08:16.646Z,100.00
2023-05-11T22:13:19.284Z,100.00
2023-05-11T22:18:23.261Z,100.00
2023-05-11T22:23:26.029Z,100.00
2023-05-11T22:28:29.821Z,100.00
2023-05-11T22:33:33.724Z,100.00
2023-05-11T22:38:38.102Z,100.00
2023-05-11T22:43:40.654Z,100.00
2023-05-11T22:48:44.532Z,100.00
2023-05-11T22:53:48.275Z,100.00
2023-05-11T22:58:51.952Z,100.00
2023-05-11T23:03:55.980Z,100.00
2023-05-11T23:08:58.597Z,100.00
2023-05-11T23:14:01.480Z,100.00
2023-05-11T23:19:05.632Z,100.00
2023-05-11T23:24:08.461Z,100.00
2023-05-11T23:29:11.077Z,100.00
2023-05-11T23:34:15.250Z,100.00
2023-05-11T23:39:17.953Z,100.00
2023-05-11T23:44:20.629Z,100.00
2023-05-11T23:49:24.551Z,100.00
2023-05-11T23:54:27.151Z,100.00
2023-05-11T23:59:29.857Z,100.00
